Time;durP1;ratioP1;P1;durP2;ratioP2;P2;SDS_P1;SDS_P2;PMS_P1;PMS_P2;Temp;Humidity;BMP_temperature;BMP_pressure;BME280_temperature;BME280_humidity;BME280_pressure;Samples;Min_cycle;Max_cycle;Signal;HPM_P1;HPM_P2
2021/04/22 00:01:17;;;;;;;19.52;5.15;;;;;;;;;;5072306;28;20020;-59
2021/04/22 00:03:44;;;;;;;19.88;5.07;;;;;;;;;;5072251;28;20415;-61
2021/04/22 00:06:11;;;;;;;17.38;5.03;;;;;;;;;;5072176;28;20483;-58
2021/04/22 00:08:38;;;;;;;21.85;5.82;;;;;;;;;;5063983;28;20107;-60
2021/04/22 00:11:06;;;;;;;17.30;5.07;;;;;;;;;;5063524;28;20388;-59
2021/04/22 00:13:33;;;;;;;24.58;5.55;;;;;;;;;;5057970;28;20021;-60
2021/04/22 00:16:01;;;;;;;13.75;4.82;;;;;;;;;;5061029;28;20352;-59
2021/04/22 00:18:28;;;;;;;18.92;4.50;;;;;;;;;;5071987;28;20044;-59
2021/04/22 00:20:56;;;;;;;15.73;4.80;;;;;;;;;;5071760;28;20030;-61
2021/04/22 00:23:23;;;;;;;18.45;5.85;;;;;;;;;;5069817;28;20017;-60
2021/04/22 00:25:50;;;;;;;19.20;5.65;;;;;;;;;;5067904;28;20445;-60
2021/04/22 00:28:18;;;;;;;21.08;5.97;;;;;;;;;;5072053;28;20044;-62
2021/04/22 00:30:46;;;;;;;18.95;5.90;;;;;;;;;;5062097;28;20425;-61
2021/04/22 00:33:18;;;;;;;18.60;6.50;;;;;;;;;;5057636;28;20037;-62
2021/04/22 00:35:45;;;;;;;21.08;7.10;;;;;;;;;;5055419;28;20016;-60
2021/04/22 00:38:13;;;;;;;22.98;8.02;;;;;;;;;;5065196;28;20017;-60
2021/04/22 00:40:40;;;;;;;21.90;7.97;;;;;;;;;;5065951;28;20056;-59
2021/04/22 00:43:10;;;;;;;23.40;8.77;;;;;;;;;;5067371;28;20475;-62
2021/04/22 00:45:37;;;;;;;18.80;7.15;;;;;;;;;;5052820;28;20020;-62
2021/04/22 00:48:08;;;;;;;14.45;7.15;;;;;;;;;;5054458;28;20040;-61
2021/04/22 00:50:36;;;;;;;18.45;7.30;;;;;;;;;;5071375;28;20032;-61
2021/04/22 00:53:04;;;;;;;32.60;8.27;;;;;;;;;;5071368;28;20372;-61
2021/04/22 00:55:31;;;;;;;23.58;9.00;;;;;;;;;;5071669;28;20388;-61
2021/04/22 00:57:58;;;;;;;26.65;8.85;;;;;;;;;;5071262;28;20078;-60
2021/04/22 01:00:27;;;;;;;19.83;8.25;;;;;;;;;;5071418;28;20020;-61
2021/04/22 01:02:54;;;;;;;22.05;9.10;;;;;;;;;;5071733;28;20052;-61
2021/04/22 01:05:23;;;;;;;24.45;7.68;;;;;;;;;;5071070;28;20540;-61
2021/04/22 01:07:50;;;;;;;28.88;8.60;;;;;;;;;;5067653;28;20557;-59
2021/04/22 01:10:19;;;;;;;23.40;7.07;;;;;;;;;;5052253;28;20094;-56
2021/04/22 01:12:46;;;;;;;23.90;7.82;;;;;;;;;;5059628;28;20426;-63
2021/04/22 01:15:16;;;;;;;19.60;6.90;;;;;;;;;;5070864;28;20024;-60
2021/04/22 01:17:43;;;;;;;21.38;7.47;;;;;;;;;;5067326;28;20029;-60
2021/04/22 01:20:12;;;;;;;17.33;6.90;;;;;;;;;;5065729;28;20086;-62
2021/04/22 01:22:39;;;;;;;18.33;6.40;;;;;;;;;;5067921;28;20111;-62
2021/04/22 01:25:11;;;;;;;20.40;6.95;;;;;;;;;;5070788;28;20057;-61
2021/04/22 01:27:38;;;;;;;17.70;5.60;;;;;;;;;;5057114;28;20059;-64
2021/04/22 01:30:09;;;;;;;13.50;5.07;;;;;;;;;;5052363;28;20033;-61
2021/04/22 01:32:36;;;;;;;18.00;6.35;;;;;;;;;;5057182;28;20035;-63
2021/04/22 01:35:08;;;;;;;18.63;5.60;;;;;;;;;;5071470;28;20016;-63
2021/04/22 01:37:36;;;;;;;17.47;6.07;;;;;;;;;;5071435;28;20066;-65
2021/04/22 01:40:05;;;;;;;19.38;5.57;;;;;;;;;;5056239;28;20446;-62
2021/04/22 01:42:32;;;;;;;12.88;5.15;;;;;;;;;;5067683;28;20483;-64
2021/04/22 01:44:59;;;;;;;18.00;6.25;;;;;;;;;;5065640;28;20025;-64
2021/04/22 01:47:26;;;;;;;17.95;5.20;;;;;;;;;;5062683;28;20024;-63
2021/04/22 01:49:53;;;;;;;16.45;5.25;;;;;;;;;;5070610;28;20033;-63
2021/04/22 01:52:20;;;;;;;14.43;4.72;;;;;;;;;;5052049;28;20096;-62
2021/04/22 01:54:47;;;;;;;18.52;5.25;;;;;;;;;;5052713;28;20025;-61
2021/04/22 01:57:14;;;;;;;15.38;5.00;;;;;;;;;;5048866;28;20061;-60
2021/04/22 01:59:41;;;;;;;14.70;4.90;;;;;;;;;;5050720;28;20017;-61
2021/04/22 02:02:09;;;;;;;11.45;4.15;;;;;;;;;;5070748;28;20464;-64
2021/04/22 02:04:36;;;;;;;12.68;4.55;;;;;;;;;;5070634;28;20028;-60
2021/04/22 02:07:05;;;;;;;12.88;4.15;;;;;;;;;;5060259;28;20024;-65
2021/04/22 02:09:32;;;;;;;17.95;4.15;;;;;;;;;;5070410;28;20068;-64
2021/04/22 02:12:00;;;;;;;14.77;4.50;;;;;;;;;;5056492;28;20013;-64
2021/04/22 02:14:27;;;;;;;18.02;4.20;;;;;;;;;;5070247;28;20027;-63
2021/04/22 02:16:54;;;;;;;15.43;4.30;;;;;;;;;;5065703;28;20521;-64
2021/04/22 02:19:21;;;;;;;19.38;5.53;;;;;;;;;;5070044;28;20053;-58
2021/04/22 02:21:48;;;;;;;22.63;5.45;;;;;;;;;;5071225;28;20095;-60
2021/04/22 02:24:16;;;;;;;13.43;4.72;;;;;;;;;;5074596;28;20020;-59
2021/04/22 02:26:43;;;;;;;18.85;3.97;;;;;;;;;;5074760;28;20028;-59
2021/04/22 02:29:10;;;;;;;12.85;4.00;;;;;;;;;;5072346;28;20083;-60
2021/04/22 02:31:37;;;;;;;13.40;4.10;;;;;;;;;;5074266;28;20016;-61
2021/04/22 02:34:04;;;;;;;13.93;4.00;;;;;;;;;;5073243;28;20016;-60
2021/04/22 02:36:31;;;;;;;14.95;3.80;;;;;;;;;;5074660;28;20107;-60
2021/04/22 02:38:58;;;;;;;8.93;3.25;;;;;;;;;;5074153;28;20012;-60
2021/04/22 02:41:26;;;;;;;11.50;3.47;;;;;;;;;;5074450;28;20017;-64
2021/04/22 02:43:53;;;;;;;9.45;3.47;;;;;;;;;;5074466;28;20020;-60
2021/04/22 02:46:20;;;;;;;10.35;3.78;;;;;;;;;;5074209;28;20487;-63
2021/04/22 02:48:47;;;;;;;9.68;3.60;;;;;;;;;;5073949;28;20082;-61
2021/04/22 02:51:14;;;;;;;10.18;4.13;;;;;;;;;;5074266;28;20021;-59
2021/04/22 02:53:41;;;;;;;10.25;3.90;;;;;;;;;;5073653;28;20051;-63
2021/04/22 02:56:08;;;;;;;7.75;3.30;;;;;;;;;;5074706;28;20365;-60
2021/04/22 02:58:35;;;;;;;10.35;3.53;;;;;;;;;;5074174;28;20044;-60
2021/04/22 03:01:02;;;;;;;10.63;3.55;;;;;;;;;;5074335;28;20028;-62
2021/04/22 03:03:29;;;;;;;9.00;3.03;;;;;;;;;;5074101;28;20381;-63
2021/04/22 03:05:57;;;;;;;9.82;3.40;;;;;;;;;;5074667;28;20025;-63
2021/04/22 03:08:24;;;;;;;9.30;3.40;;;;;;;;;;5073956;28;20510;-62
2021/04/22 03:10:51;;;;;;;8.40;3.38;;;;;;;;;;5073235;28;20036;-62
2021/04/22 03:13:18;;;;;;;8.10;2.90;;;;;;;;;;5074228;28;20081;-61
2021/04/22 03:15:46;;;;;;;9.98;3.03;;;;;;;;;;5072713;28;20029;-61
2021/04/22 03:18:13;;;;;;;9.38;3.00;;;;;;;;;;5073898;28;20135;-61
2021/04/22 03:20:40;;;;;;;8.48;3.03;;;;;;;;;;5054326;28;20045;-64
2021/04/22 03:23:08;;;;;;;6.75;2.97;;;;;;;;;;5054335;28;20048;-60
2021/04/22 03:25:35;;;;;;;7.50;2.63;;;;;;;;;;5054221;28;20099;-67
2021/04/22 03:28:02;;;;;;;10.70;2.90;;;;;;;;;;5053998;28;20031;-60
2021/04/22 03:30:31;;;;;;;5.72;2.50;;;;;;;;;;5054141;28;20407;-65
2021/04/22 03:32:58;;;;;;;5.80;2.30;;;;;;;;;;5054004;28;20021;-62
2021/04/22 03:35:26;;;;;;;7.90;2.70;;;;;;;;;;5053981;28;20104;-64
2021/04/22 03:37:53;;;;;;;6.85;2.35;;;;;;;;;;5055542;28;20047;-59
2021/04/22 03:40:21;;;;;;;9.48;2.85;;;;;;;;;;5073909;28;20024;-65
2021/04/22 03:42:48;;;;;;;6.07;2.35;;;;;;;;;;5073823;28;20020;-70
2021/04/22 03:45:16;;;;;;;10.32;2.88;;;;;;;;;;5073848;28;20028;-61
2021/04/22 03:47:43;;;;;;;6.30;2.47;;;;;;;;;;5073438;28;20020;-61
2021/04/22 03:50:11;;;;;;;5.35;2.28;;;;;;;;;;5073732;28;20025;-65
2021/04/22 03:52:38;;;;;;;5.80;2.53;;;;;;;;;;5073789;28;20025;-59
2021/04/22 03:55:06;;;;;;;6.70;2.55;;;;;;;;;;5072244;28;20403;-61
2021/04/22 03:57:33;;;;;;;7.35;2.47;;;;;;;;;;5072176;28;20433;-63
2021/04/22 04:00:00;;;;;;;6.75;2.00;;;;;;;;;;5073394;28;20464;-64
2021/04/22 04:02:27;;;;;;;6.25;2.17;;;;;;;;;;5073556;28;20037;-60
2021/04/22 04:04:54;;;;;;;7.03;2.30;;;;;;;;;;5073342;28;20369;-60
2021/04/22 04:07:21;;;;;;;7.45;2.15;;;;;;;;;;5072784;28;20020;-60
2021/04/22 04:09:48;;;;;;;4.93;2.08;;;;;;;;;;5088835;28;20035;-71
2021/04/22 04:12:15;;;;;;;4.88;2.15;;;;;;;;;;5073231;28;20103;-71
2021/04/22 04:14:43;;;;;;;6.25;1.95;;;;;;;;;;5073147;28;20020;-70
2021/04/22 04:17:09;;;;;;;7.22;2.08;;;;;;;;;;5073341;28;20016;-69
2021/04/22 04:19:37;;;;;;;6.72;2.45;;;;;;;;;;5072917;28;20068;-69
2021/04/22 04:22:04;;;;;;;6.70;2.00;;;;;;;;;;5073064;28;20047;-71
2021/04/22 04:24:31;;;;;;;3.55;1.88;;;;;;;;;;5073137;28;20387;-71
2021/04/22 04:26:58;;;;;;;5.20;2.00;;;;;;;;;;5073015;28;20019;-70
2021/04/22 04:29:25;;;;;;;5.45;2.13;;;;;;;;;;5072682;28;20040;-71
2021/04/22 04:31:52;;;;;;;6.07;2.13;;;;;;;;;;5073091;28;20035;-71
2021/04/22 04:34:19;;;;;;;7.05;2.30;;;;;;;;;;5072940;28;20016;-68
2021/04/22 04:36:47;;;;;;;5.57;1.70;;;;;;;;;;5072925;28;20027;-68
2021/04/22 04:39:17;;;;;;;4.10;1.60;;;;;;;;;;5072481;28;20515;-66
2021/04/22 04:41:44;;;;;;;5.53;1.70;;;;;;;;;;5072848;28;20066;-70
2021/04/22 04:44:12;;;;;;;5.13;1.95;;;;;;;;;;5072617;28;20036;-59
2021/04/22 04:46:40;;;;;;;5.90;1.83;;;;;;;;;;5072933;28;20545;-59
2021/04/22 04:49:07;;;;;;;6.28;1.80;;;;;;;;;;5072587;28;20041;-59
2021/04/22 04:51:35;;;;;;;3.40;1.33;;;;;;;;;;5072664;28;20145;-59
2021/04/22 04:54:02;;;;;;;4.28;1.75;;;;;;;;;;5072782;28;20072;-61
2021/04/22 04:56:30;;;;;;;3.42;1.65;;;;;;;;;;5072525;28;20050;-58
2021/04/22 04:58:57;;;;;;;3.15;1.52;;;;;;;;;;5072591;28;20028;-59
2021/04/22 05:01:24;;;;;;;5.30;2.00;;;;;;;;;;5072670;28;20025;-60
2021/04/22 05:03:51;;;;;;;4.15;1.40;;;;;;;;;;5072414;28;20032;-61
2021/04/22 05:06:18;;;;;;;5.05;1.67;;;;;;;;;;5072591;28;20059;-59
2021/04/22 05:08:45;;;;;;;4.30;1.50;;;;;;;;;;5072345;28;20025;-62
2021/04/22 05:11:12;;;;;;;3.47;1.40;;;;;;;;;;5072470;28;20025;-60
2021/04/22 05:13:39;;;;;;;3.80;1.50;;;;;;;;;;5072316;28;20500;-60
2021/04/22 05:16:06;;;;;;;4.03;1.67;;;;;;;;;;5072600;28;20103;-60
2021/04/22 05:18:34;;;;;;;4.13;1.70;;;;;;;;;;5072316;28;20637;-61
2021/04/22 05:21:01;;;;;;;4.13;1.33;;;;;;;;;;5072315;28;20052;-58
2021/04/22 05:23:28;;;;;;;3.67;1.40;;;;;;;;;;5072279;28;20020;-60
2021/04/22 05:25:55;;;;;;;5.40;1.85;;;;;;;;;;5072231;28;20033;-61
2021/04/22 05:28:22;;;;;;;5.13;1.45;;;;;;;;;;5072223;28;20561;-62
2021/04/22 05:30:50;;;;;;;3.67;1.40;;;;;;;;;;5072291;28;20013;-65
2021/04/22 05:33:17;;;;;;;5.03;1.67;;;;;;;;;;5072358;28;20031;-60
2021/04/22 05:35:45;;;;;;;2.67;1.42;;;;;;;;;;5072295;28;20024;-62
2021/04/22 05:38:12;;;;;;;2.63;1.50;;;;;;;;;;5072160;28;20048;-67
2021/04/22 05:40:39;;;;;;;4.00;1.27;;;;;;;;;;5072249;28;20499;-63
2021/04/22 05:43:07;;;;;;;3.13;1.40;;;;;;;;;;5072132;28;20020;-63
2021/04/22 05:45:35;;;;;;;3.08;1.23;;;;;;;;;;5071992;28;20025;-67
2021/04/22 05:48:03;;;;;;;2.08;1.23;;;;;;;;;;5072137;28;20103;-66
2021/04/22 05:50:29;;;;;;;2.88;1.30;;;;;;;;;;5072794;28;20484;-66
2021/04/22 05:52:57;;;;;;;3.40;1.58;;;;;;;;;;5075973;28;20099;-62
2021/04/22 05:55:24;;;;;;;3.03;1.30;;;;;;;;;;5075936;28;20025;-61
2021/04/22 05:57:51;;;;;;;3.53;1.30;;;;;;;;;;5075772;28;20031;-64
2021/04/22 06:00:20;;;;;;;3.53;1.42;;;;;;;;;;5075783;28;20031;-62
2021/04/22 06:02:47;;;;;;;2.65;1.40;;;;;;;;;;5075930;28;20092;-64
2021/04/22 06:05:15;;;;;;;3.63;1.25;;;;;;;;;;5075732;28;20024;-70
2021/04/22 06:07:42;;;;;;;2.25;1.20;;;;;;;;;;5075602;28;20537;-70
2021/04/22 06:10:09;;;;;;;2.50;1.30;;;;;;;;;;5075534;28;20032;-70
2021/04/22 06:12:36;;;;;;;2.42;1.30;;;;;;;;;;5075666;28;20422;-67
2021/04/22 06:15:04;;;;;;;3.30;1.20;;;;;;;;;;5075522;28;20021;-70
2021/04/22 06:17:31;;;;;;;3.03;1.10;;;;;;;;;;5075629;28;20028;-66
2021/04/22 06:19:58;;;;;;;3.30;1.52;;;;;;;;;;5075457;28;20128;-70
2021/04/22 06:22:25;;;;;;;2.85;1.30;;;;;;;;;;5075305;28;20068;-70
2021/04/22 06:24:52;;;;;;;1.95;1.17;;;;;;;;;;5075367;28;20376;-70
2021/04/22 06:27:19;;;;;;;3.00;1.40;;;;;;;;;;5074093;28;20029;-70
2021/04/22 06:29:46;;;;;;;2.60;1.20;;;;;;;;;;5075156;28;20033;-69
2021/04/22 06:32:13;;;;;;;3.85;1.30;;;;;;;;;;5075233;28;20025;-70
2021/04/22 06:34:40;;;;;;;3.45;1.17;;;;;;;;;;5075184;28;20028;-69
2021/04/22 06:37:07;;;;;;;2.25;1.23;;;;;;;;;;5090716;28;20025;-71
2021/04/22 06:39:34;;;;;;;1.15;0.93;;;;;;;;;;5074949;28;20024;-69
2021/04/22 06:42:01;;;;;;;3.30;1.23;;;;;;;;;;5075229;28;20024;-69
2021/04/22 06:44:28;;;;;;;2.13;1.10;;;;;;;;;;5074992;28;20032;-67
2021/04/22 06:46:55;;;;;;;2.83;1.48;;;;;;;;;;5074946;28;20026;-68
2021/04/22 06:49:22;;;;;;;2.42;1.10;;;;;;;;;;5074935;28;20059;-70
2021/04/22 06:51:49;;;;;;;1.88;1.05;;;;;;;;;;5074846;28;20078;-68
2021/04/22 06:54:16;;;;;;;2.75;1.13;;;;;;;;;;5074647;28;20024;-69
2021/04/22 06:56:43;;;;;;;3.08;1.38;;;;;;;;;;5074974;28;20025;-70
2021/04/22 06:59:10;;;;;;;2.20;1.00;;;;;;;;;;5074608;28;20024;-65
2021/04/22 07:01:37;;;;;;;4.05;1.25;;;;;;;;;;5074364;28;20495;-69
2021/04/22 07:04:05;;;;;;;3.03;1.30;;;;;;;;;;5074657;28;20472;-68
2021/04/22 07:06:32;;;;;;;2.63;1.13;;;;;;;;;;5074607;28;20090;-67
2021/04/22 07:08:59;;;;;;;1.38;0.82;;;;;;;;;;5074226;28;20037;-63
2021/04/22 07:11:27;;;;;;;2.72;1.17;;;;;;;;;;5074697;28;20024;-58
2021/04/22 07:13:54;;;;;;;2.35;1.10;;;;;;;;;;5074344;28;20104;-57
2021/04/22 07:16:21;;;;;;;2.22;0.88;;;;;;;;;;5074386;28;20181;-58
2021/04/22 07:18:49;;;;;;;3.05;1.05;;;;;;;;;;5074214;28;20052;-59
2021/04/22 07:21:16;;;;;;;2.05;1.08;;;;;;;;;;5074382;28;20018;-58
2021/04/22 07:23:43;;;;;;;2.15;1.05;;;;;;;;;;5074030;28;20381;-59
2021/04/22 07:26:10;;;;;;;2.00;0.90;;;;;;;;;;5074399;28;20028;-61
2021/04/22 07:28:37;;;;;;;2.80;0.95;;;;;;;;;;5074026;28;20089;-59
2021/04/22 07:31:04;;;;;;;2.42;1.10;;;;;;;;;;5073950;28;20025;-67
2021/04/22 07:33:31;;;;;;;2.15;1.00;;;;;;;;;;5074196;28;20396;-62
2021/04/22 07:35:58;;;;;;;2.30;1.10;;;;;;;;;;5073961;28;20021;-58
2021/04/22 07:38:25;;;;;;;1.25;0.90;;;;;;;;;;5073816;28;20028;-58
2021/04/22 07:40:53;;;;;;;2.85;1.10;;;;;;;;;;5073956;28;20027;-64
2021/04/22 07:43:20;;;;;;;1.42;0.90;;;;;;;;;;5073889;28;20016;-60
2021/04/22 07:45:48;;;;;;;1.35;0.93;;;;;;;;;;5073885;28;20017;-59
2021/04/22 07:48:15;;;;;;;1.98;0.90;;;;;;;;;;5073859;28;20078;-69
2021/04/22 07:50:42;;;;;;;1.70;1.10;;;;;;;;;;5073693;28;20411;-71
2021/04/22 07:53:10;;;;;;;1.60;0.90;;;;;;;;;;5073662;28;20074;-71
2021/04/22 07:55:40;;;;;;;1.95;0.90;;;;;;;;;;5073514;28;20543;-64
2021/04/22 07:58:08;;;;;;;1.83;0.93;;;;;;;;;;5073649;28;20025;-71
2021/04/22 08:00:36;;;;;;;1.50;1.00;;;;;;;;;;5073490;28;20020;-71
2021/04/22 08:03:03;;;;;;;1.88;0.93;;;;;;;;;;5073505;28;20112;-70
2021/04/22 08:05:33;;;;;;;2.17;0.88;;;;;;;;;;5073608;28;20132;-71
2021/04/22 08:08:00;;;;;;;1.98;0.85;;;;;;;;;;5073126;28;20070;-71
2021/04/22 08:10:30;;;;;;;2.10;0.90;;;;;;;;;;5073308;28;20028;-70
2021/04/22 08:12:57;;;;;;;2.58;1.00;;;;;;;;;;5073171;28;20055;-71
2021/04/22 08:15:24;;;;;;;1.40;0.88;;;;;;;;;;5073159;28;20074;-70
2021/04/22 08:17:51;;;;;;;1.92;1.08;;;;;;;;;;5072945;28;20020;-69
2021/04/22 08:20:20;;;;;;;1.60;0.80;;;;;;;;;;5073188;28;20033;-71
2021/04/22 08:22:48;;;;;;;1.17;0.60;;;;;;;;;;5073318;28;20163;-70
2021/04/22 08:25:20;;;;;;;1.35;0.70;;;;;;;;;;5072994;28;20024;-71
2021/04/22 08:27:51;;;;;;;1.88;0.80;;;;;;;;;;5073016;28;20017;-71
2021/04/22 08:30:21;;;;;;;1.10;0.73;;;;;;;;;;5073018;28;20028;-70
2021/04/22 08:32:48;;;;;;;4.22;0.85;;;;;;;;;;5073049;28;20480;-68
2021/04/22 08:35:16;;;;;;;1.00;0.70;;;;;;;;;;5071764;28;20036;-70
2021/04/22 08:37:43;;;;;;;2.15;0.80;;;;;;;;;;5073147;28;20017;-70
2021/04/22 08:40:11;;;;;;;1.17;0.70;;;;;;;;;;5072849;28;20426;-69
2021/04/22 08:42:40;;;;;;;1.92;0.88;;;;;;;;;;5072954;28;20027;-64
2021/04/22 08:45:08;;;;;;;1.23;0.70;;;;;;;;;;5072815;28;20078;-67
2021/04/22 08:47:35;;;;;;;1.60;0.80;;;;;;;;;;5072978;28;20499;-70
2021/04/22 08:50:03;;;;;;;1.38;0.90;;;;;;;;;;5072702;28;20514;-70
2021/04/22 08:52:31;;;;;;;2.13;0.90;;;;;;;;;;5071587;28;20020;-71
2021/04/22 08:54:58;;;;;;;0.88;0.68;;;;;;;;;;5072912;28;20103;-70
2021/04/22 08:57:25;;;;;;;1.27;0.77;;;;;;;;;;5072770;28;20024;-70
2021/04/22 08:59:54;;;;;;;0.90;0.70;;;;;;;;;;5071531;28;20408;-69
2021/04/22 09:02:21;;;;;;;1.25;0.75;;;;;;;;;;5072620;28;20043;-70
2021/04/22 09:04:49;;;;;;;1.75;0.80;;;;;;;;;;5072766;28;20027;-70
2021/04/22 09:07:16;;;;;;;1.13;0.63;;;;;;;;;;5072465;28;20078;-64
2021/04/22 09:09:44;;;;;;;2.30;0.70;;;;;;;;;;5072700;28;20539;-60
2021/04/22 09:12:17;;;;;;;0.82;0.65;;;;;;;;;;5072648;28;20082;-59
2021/04/22 09:14:56;;;;;;;1.30;0.80;;;;;;;;;;5072672;28;20099;-61
2021/04/22 09:17:23;;;;;;;1.08;0.70;;;;;;;;;;5072516;28;20554;-61
2021/04/22 09:19:50;;;;;;;1.63;0.70;;;;;;;;;;5072538;28;20045;-63
2021/04/22 09:22:17;;;;;;;1.27;0.70;;;;;;;;;;5072469;28;20027;-69
2021/04/22 09:24:45;;;;;;;1.15;0.70;;;;;;;;;;5072362;28;20017;-64
2021/04/22 09:27:14;;;;;;;2.05;0.90;;;;;;;;;;5076743;28;20024;-61
2021/04/22 09:29:46;;;;;;;2.83;0.80;;;;;;;;;;5076435;28;20041;-62
2021/04/22 09:32:16;;;;;;;0.95;0.65;;;;;;;;;;5076657;28;20024;-64
2021/04/22 09:34:57;;;;;;;0.90;0.63;;;;;;;;;;5076576;28;20024;-60
2021/04/22 09:37:25;;;;;;;0.98;0.70;;;;;;;;;;5076518;28;20025;-62
2021/04/22 09:39:52;;;;;;;1.95;0.70;;;;;;;;;;5076433;28;20431;-63
2021/04/22 09:42:21;;;;;;;1.13;0.60;;;;;;;;;;5076313;28;20522;-60
2021/04/22 09:44:48;;;;;;;1.33;0.75;;;;;;;;;;5076207;28;20028;-63
2021/04/22 09:47:17;;;;;;;1.15;0.70;;;;;;;;;;5076437;28;20017;-63
2021/04/22 09:50:00;;;;;;;4.85;0.80;;;;;;;;;;5076228;28;20106;-66
2021/04/22 09:52:41;;;;;;;1.08;0.77;;;;;;;;;;5076080;28;20426;-60
2021/04/22 09:55:09;;;;;;;2.28;0.95;;;;;;;;;;5076109;28;20044;-65
2021/04/22 09:57:37;;;;;;;1.58;0.60;;;;;;;;;;5075925;28;20511;-61
2021/04/22 10:00:06;;;;;;;0.95;0.65;;;;;;;;;;5076090;28;20369;-64
2021/04/22 10:02:44;;;;;;;0.90;0.60;;;;;;;;;;5076036;28;20078;-67
2021/04/22 10:05:40;;;;;;;1.15;0.70;;;;;;;;;;5075715;28;20040;-64
2021/04/22 10:08:08;;;;;;;0.50;0.50;;;;;;;;;;5066919;28;20047;-67
2021/04/22 10:10:36;;;;;;;1.80;0.80;;;;;;;;;;5075707;28;20387;-61
2021/04/22 10:13:08;;;;;;;1.35;0.70;;;;;;;;;;5075977;28;20096;-63
2021/04/22 10:15:35;;;;;;;1.17;0.68;;;;;;;;;;5075918;28;20059;-59
2021/04/22 10:18:03;;;;;;;1.92;0.70;;;;;;;;;;5075339;28;20040;-60
2021/04/22 10:20:35;;;;;;;0.82;0.65;;;;;;;;;;5075706;28;20499;-63
2021/04/22 10:23:02;;;;;;;1.00;0.50;;;;;;;;;;5075752;28;20071;-60
2021/04/22 10:25:31;;;;;;;2.50;0.88;;;;;;;;;;5089145;28;20384;-59
2021/04/22 10:28:04;;;;;;;1.73;0.73;;;;;;;;;;5079216;28;20028;-65
2021/04/22 10:30:31;;;;;;;10.95;1.00;;;;;;;;;;5073523;28;20105;-60
2021/04/22 10:32:58;;;;;;;4.68;0.77;;;;;;;;;;5071756;28;20381;-61
2021/04/22 10:35:26;;;;;;;4.07;1.00;;;;;;;;;;5074444;28;20024;-61
2021/04/22 10:37:54;;;;;;;4.05;0.73;;;;;;;;;;5071841;28;20017;-60
2021/04/22 10:40:22;;;;;;;2.67;0.80;;;;;;;;;;5070101;28;20029;-61
2021/04/22 10:42:50;;;;;;;1.90;0.80;;;;;;;;;;5068390;28;20033;-63
2021/04/22 10:45:18;;;;;;;1.95;0.68;;;;;;;;;;5072594;28;20055;-63
2021/04/22 10:47:46;;;;;;;3.05;0.60;;;;;;;;;;5074775;28;20021;-64
2021/04/22 10:50:26;;;;;;;1.40;0.60;;;;;;;;;;5073427;28;20082;-64
2021/04/22 10:52:54;;;;;;;5.72;0.73;;;;;;;;;;5070497;28;20025;-60
2021/04/22 10:55:26;;;;;;;3.22;0.80;;;;;;;;;;5072398;28;20033;-59
2021/04/22 10:57:57;;;;;;;1.30;0.80;;;;;;;;;;5071928;28;20055;-59
2021/04/22 11:00:27;;;;;;;5.63;1.08;;;;;;;;;;5074568;28;20048;-60
2021/04/22 11:02:56;;;;;;;2.28;0.70;;;;;;;;;;5074409;28;20145;-60
2021/04/22 11:05:25;;;;;;;1.02;0.70;;;;;;;;;;5074492;28;20131;-60
2021/04/22 11:08:11;;;;;;;3.30;0.77;;;;;;;;;;5073079;28;20048;-65
2021/04/22 11:10:38;;;;;;;1.35;0.50;;;;;;;;;;5072748;28;20090;-62
2021/04/22 11:13:12;;;;;;;2.50;0.77;;;;;;;;;;5062545;28;20052;-64
2021/04/22 11:15:40;;;;;;;1.17;0.70;;;;;;;;;;5053076;28;20029;-62
2021/04/22 11:18:14;;;;;;;1.92;0.57;;;;;;;;;;5053805;28;20049;-62
2021/04/22 11:20:43;;;;;;;2.78;0.80;;;;;;;;;;5052014;28;20120;-61
2021/04/22 11:23:14;;;;;;;5.20;0.80;;;;;;;;;;5053715;28;20047;-64
2021/04/22 11:25:55;;;;;;;1.00;0.60;;;;;;;;;;5053705;28;20108;-61
2021/04/22 11:28:49;;;;;;;5.28;0.90;;;;;;;;;;5061356;28;20036;-61
2021/04/22 11:31:21;;;;;;;2.30;0.88;;;;;;;;;;5072252;28;20044;-60
2021/04/22 11:33:48;;;;;;;3.10;0.82;;;;;;;;;;5072053;28;20017;-60
2021/04/22 11:36:18;;;;;;;2.15;0.70;;;;;;;;;;5072269;28;20025;-59
2021/04/22 11:38:51;;;;;;;4.57;1.00;;;;;;;;;;5073653;28;20040;-60
2021/04/22 11:41:19;;;;;;;5.68;0.85;;;;;;;;;;5073218;28;20357;-60
2021/04/22 11:43:47;;;;;;;2.38;0.85;;;;;;;;;;5072010;28;20021;-59
2021/04/22 11:46:14;;;;;;;2.50;0.80;;;;;;;;;;5071957;28;20448;-61
2021/04/22 11:48:43;;;;;;;1.83;0.52;;;;;;;;;;5070190;28;20071;-59
2021/04/22 11:51:11;;;;;;;2.88;0.85;;;;;;;;;;5070119;28;20024;-59
2021/04/22 11:53:38;;;;;;;2.80;0.90;;;;;;;;;;5073147;28;20028;-58
2021/04/22 11:56:06;;;;;;;3.00;0.88;;;;;;;;;;5070741;28;20418;-60
2021/04/22 11:58:34;;;;;;;2.55;0.80;;;;;;;;;;5072887;28;20025;-61
2021/04/22 12:01:03;;;;;;;3.42;0.80;;;;;;;;;;5072829;28;20029;-60
2021/04/22 12:03:31;;;;;;;1.50;0.60;;;;;;;;;;5073080;28;20020;-60
2021/04/22 12:06:00;;;;;;;1.73;1.00;;;;;;;;;;5071106;28;20012;-62
2021/04/22 12:08:35;;;;;;;1.42;0.70;;;;;;;;;;5070200;28;20039;-60
2021/04/22 12:11:04;;;;;;;3.97;1.02;;;;;;;;;;5072388;28;20028;-62
2021/04/22 12:13:33;;;;;;;4.78;1.00;;;;;;;;;;5072708;28;20086;-61
2021/04/22 12:16:01;;;;;;;7.00;1.02;;;;;;;;;;5072484;28;20068;-60
2021/04/22 12:18:33;;;;;;;1.88;0.65;;;;;;;;;;5071857;28;20127;-63
2021/04/22 12:21:11;;;;;;;6.40;1.00;;;;;;;;;;5070082;28;20473;-62
2021/04/22 12:23:49;;;;;;;4.63;1.15;;;;;;;;;;5072452;28;20028;-62
2021/04/22 12:26:18;;;;;;;5.65;1.20;;;;;;;;;;5072498;28;20047;-60
2021/04/22 12:28:55;;;;;;;3.53;0.88;;;;;;;;;;5072518;28;20029;-60
2021/04/22 12:31:28;;;;;;;2.50;0.88;;;;;;;;;;5071184;28;20077;-60
2021/04/22 12:33:56;;;;;;;3.05;0.90;;;;;;;;;;5071714;28;20381;-60
2021/04/22 12:36:23;;;;;;;3.05;0.77;;;;;;;;;;5066824;28;20463;-60
2021/04/22 12:38:50;;;;;;;4.50;1.23;;;;;;;;;;5071822;28;20059;-59
2021/04/22 12:41:20;;;;;;;2.05;0.90;;;;;;;;;;5071829;28;20016;-60
2021/04/22 12:43:48;;;;;;;3.28;1.05;;;;;;;;;;5068604;28;20028;-60
2021/04/22 12:46:19;;;;;;;2.60;1.05;;;;;;;;;;5071219;28;20537;-61
2021/04/22 12:48:57;;;;;;;2.22;1.25;;;;;;;;;;5072614;28;20032;-60
2021/04/22 12:51:38;;;;;;;4.53;1.20;;;;;;;;;;5071606;28;20036;-60
2021/04/22 12:54:05;;;;;;;1.85;0.95;;;;;;;;;;5070755;28;20031;-60
2021/04/22 12:56:33;;;;;;;4.28;1.23;;;;;;;;;;5070187;28;20111;-60
2021/04/22 12:59:05;;;;;;;2.92;0.75;;;;;;;;;;5070801;28;20192;-60
2021/04/22 13:01:33;;;;;;;3.45;1.10;;;;;;;;;;5072138;28;20035;-61
2021/04/22 13:04:02;;;;;;;8.73;1.35;;;;;;;;;;5072033;28;20056;-63
2021/04/22 13:06:30;;;;;;;8.25;1.08;;;;;;;;;;5070082;28;20741;-60
2021/04/22 13:08:59;;;;;;;6.55;1.13;;;;;;;;;;5069155;28;20111;-60
2021/04/22 13:11:30;;;;;;;4.03;0.88;;;;;;;;;;5071870;28;20048;-64
2021/04/22 13:13:58;;;;;;;2.42;0.75;;;;;;;;;;5071529;28;20024;-60
2021/04/22 13:16:27;;;;;;;3.92;0.90;;;;;;;;;;5071771;28;20059;-62
2021/04/22 13:19:02;;;;;;;5.90;1.58;;;;;;;;;;5069231;28;20128;-59
2021/04/22 13:21:32;;;;;;;1.80;1.00;;;;;;;;;;5072015;28;20053;-63
2021/04/22 13:23:59;;;;;;;4.55;1.00;;;;;;;;;;5071271;28;20436;-65
2021/04/22 13:26:29;;;;;;;5.03;1.25;;;;;;;;;;5072310;28;20020;-65
2021/04/22 13:29:11;;;;;;;6.80;1.27;;;;;;;;;;5072000;28;20021;-61
2021/04/22 13:31:39;;;;;;;17.77;1.20;;;;;;;;;;5069970;28;20120;-63
2021/04/22 13:34:10;;;;;;;5.00;1.10;;;;;;;;;;5072134;28;20021;-65
2021/04/22 13:36:45;;;;;;;5.72;1.50;;;;;;;;;;5072244;28;20408;-60
2021/04/22 13:39:12;;;;;;;5.45;1.40;;;;;;;;;;5072021;28;20020;-62
2021/04/22 13:41:40;;;;;;;12.57;1.60;;;;;;;;;;5071287;28;20510;-60
2021/04/22 13:44:11;;;;;;;5.75;0.90;;;;;;;;;;5070354;28;20032;-62
2021/04/22 13:46:50;;;;;;;7.30;1.23;;;;;;;;;;5071812;28;20023;-60
2021/04/22 13:49:21;;;;;;;3.60;1.10;;;;;;;;;;5071991;28;20036;-59
2021/04/22 13:51:48;;;;;;;4.97;1.40;;;;;;;;;;5071708;28;20017;-60
2021/04/22 13:54:17;;;;;;;4.38;0.90;;;;;;;;;;5069869;28;20020;-61
2021/04/22 13:56:44;;;;;;;8.75;1.20;;;;;;;;;;5071229;28;20031;-60
2021/04/22 13:59:15;;;;;;;17.13;1.52;;;;;;;;;;5071791;28;20059;-59
2021/04/22 14:01:42;;;;;;;2.55;1.20;;;;;;;;;;5071706;28;20021;-61
2021/04/22 14:04:13;;;;;;;1.75;1.10;;;;;;;;;;5071759;28;20020;-61
2021/04/22 14:06:42;;;;;;;2.03;1.10;;;;;;;;;;5068279;28;20033;-60
2021/04/22 14:09:15;;;;;;;5.55;1.13;;;;;;;;;;5071519;28;20041;-61
2021/04/22 14:11:42;;;;;;;9.57;1.10;;;;;;;;;;5072572;28;20089;-60
2021/04/22 14:14:10;;;;;;;6.93;1.20;;;;;;;;;;5075397;28;20366;-65
2021/04/22 14:16:37;;;;;;;9.88;1.38;;;;;;;;;;5074965;28;20013;-63
2021/04/22 14:19:12;;;;;;;6.20;1.15;;;;;;;;;;5073372;28;20067;-63
2021/04/22 14:21:39;;;;;;;3.70;1.10;;;;;;;;;;5075076;28;20032;-60
2021/04/22 14:24:07;;;;;;;7.03;1.27;;;;;;;;;;5075405;28;20052;-61
2021/04/22 14:26:34;;;;;;;3.75;1.20;;;;;;;;;;5075179;28;20051;-61
2021/04/22 14:29:02;;;;;;;3.00;1.20;;;;;;;;;;5073319;28;20040;-66
2021/04/22 14:31:29;;;;;;;1.95;0.90;;;;;;;;;;5074327;28;20025;-62
2021/04/22 14:33:56;;;;;;;11.52;0.90;;;;;;;;;;5074744;28;20090;-62
2021/04/22 14:36:24;;;;;;;2.38;0.80;;;;;;;;;;5074648;28;20388;-61
2021/04/22 14:38:51;;;;;;;3.38;0.95;;;;;;;;;;5074818;28;20480;-62
2021/04/22 14:41:18;;;;;;;4.78;1.60;;;;;;;;;;5072767;28;20025;-62
2021/04/22 14:43:45;;;;;;;7.55;1.40;;;;;;;;;;5074815;28;20048;-62
2021/04/22 14:46:12;;;;;;;3.92;1.10;;;;;;;;;;5074624;28;20127;-62
2021/04/22 14:48:39;;;;;;;5.47;1.00;;;;;;;;;;5074532;28;20025;-62